Time;durP1;ratioP1;P1;durP2;ratioP2;P2;SDS_P1;SDS_P2;PMS_P1;PMS_P2;Temp;Humidity;BMP_temperature;BMP_pressure;BME280_temperature;BME280_humidity;BME280_pressure;Samples;Min_cycle;Max_cycle;Signal;HPM_P1;HPM_P2
2021/06/30 00:02:17;;;;;;;10.10;6.50;;;;;;;;;;5108279;28;20031;-76
2021/06/30 00:04:43;;;;;;;9.85;5.97;;;;;;;;;;5109698;28;20559;-74
2021/06/30 00:07:09;;;;;;;11.52;6.28;;;;;;;;;;5111377;28;20024;-76
2021/06/30 00:09:36;;;;;;;10.05;5.72;;;;;;;;;;5114296;28;20036;-73
2021/06/30 00:12:02;;;;;;;17.27;5.90;;;;;;;;;;5112449;28;20093;-76
2021/06/30 00:14:28;;;;;;;15.45;6.93;;;;;;;;;;5113984;28;20024;-75
2021/06/30 00:16:54;;;;;;;11.10;5.35;;;;;;;;;;5113662;28;20024;-75
2021/06/30 00:19:20;;;;;;;11.88;5.90;;;;;;;;;;5111999;27;20027;-76
2021/06/30 00:21:46;;;;;;;12.13;6.13;;;;;;;;;;5116237;27;20039;-75
2021/06/30 00:24:12;;;;;;;10.93;6.45;;;;;;;;;;5114423;28;20043;-76
2021/06/30 00:26:39;;;;;;;8.13;6.03;;;;;;;;;;5095325;28;20504;-76
2021/06/30 00:29:06;;;;;;;10.30;5.75;;;;;;;;;;5113989;28;20069;-77
2021/06/30 00:31:32;;;;;;;8.75;5.72;;;;;;;;;;5112383;28;20425;-77
2021/06/30 00:34:02;;;;;;;15.95;6.28;;;;;;;;;;5096233;28;20529;-78
2021/06/30 00:36:30;;;;;;;9.93;5.93;;;;;;;;;;5113831;28;20100;-77
2021/06/30 00:38:56;;;;;;;8.50;6.00;;;;;;;;;;5113768;28;20491;-78
2021/06/30 00:41:22;;;;;;;10.07;6.05;;;;;;;;;;5113498;28;20031;-76
2021/06/30 00:43:48;;;;;;;9.63;5.78;;;;;;;;;;5095265;28;20393;-77
2021/06/30 00:46:14;;;;;;;8.93;5.88;;;;;;;;;;5098459;28;20051;-77
2021/06/30 00:48:40;;;;;;;13.05;6.20;;;;;;;;;;5112719;28;20039;-75
2021/06/30 00:51:06;;;;;;;11.32;6.07;;;;;;;;;;5110926;28;20486;-76
2021/06/30 00:53:32;;;;;;;8.27;5.18;;;;;;;;;;5111948;28;20424;-77
2021/06/30 00:55:58;;;;;;;7.97;5.65;;;;;;;;;;5113552;28;20044;-76
2021/06/30 00:58:25;;;;;;;11.02;5.25;;;;;;;;;;5112294;28;20939;-76
2021/06/30 01:00:51;;;;;;;8.07;4.78;;;;;;;;;;5113251;28;20028;-77
2021/06/30 01:03:17;;;;;;;9.15;5.30;;;;;;;;;;5112633;28;20052;-77
2021/06/30 01:05:43;;;;;;;10.40;4.70;;;;;;;;;;5113435;28;20367;-77
2021/06/30 01:08:09;;;;;;;10.32;4.85;;;;;;;;;;5113047;28;20020;-76
2021/06/30 01:10:35;;;;;;;6.45;4.72;;;;;;;;;;5113200;28;20106;-76
2021/06/30 01:13:04;;;;;;;9.80;4.93;;;;;;;;;;5112782;28;20114;-76
2021/06/30 01:15:30;;;;;;;10.45;5.40;;;;;;;;;;5113629;27;20436;-77
2021/06/30 01:17:56;;;;;;;8.77;5.55;;;;;;;;;;5112064;28;20031;-76
2021/06/30 01:20:22;;;;;;;10.00;5.53;;;;;;;;;;5112831;28;20028;-77
2021/06/30 01:23:04;;;;;;;9.90;5.40;;;;;;;;;;5099631;28;20478;-76
2021/06/30 01:25:30;;;;;;;9.13;5.15;;;;;;;;;;5108553;28;20394;-76
2021/06/30 01:27:56;;;;;;;9.68;5.60;;;;;;;;;;5112927;28;20020;-76
2021/06/30 01:30:22;;;;;;;11.05;5.50;;;;;;;;;;5094152;28;20462;-76
2021/06/30 01:32:48;;;;;;;5.90;4.93;;;;;;;;;;5112203;28;20081;-76
2021/06/30 01:35:21;;;;;;;9.57;5.43;;;;;;;;;;5112062;28;20092;-77
2021/06/30 01:37:48;;;;;;;9.80;5.28;;;;;;;;;;5099178;28;20442;-76
2021/06/30 01:40:14;;;;;;;11.73;6.10;;;;;;;;;;5113170;28;20060;-77
2021/06/30 01:42:43;;;;;;;11.43;5.43;;;;;;;;;;5111957;28;20111;-75
2021/06/30 01:45:09;;;;;;;9.85;5.40;;;;;;;;;;5112403;27;20074;-75
2021/06/30 01:47:35;;;;;;;8.68;5.45;;;;;;;;;;5112382;28;20359;-77
2021/06/30 01:50:02;;;;;;;7.35;5.65;;;;;;;;;;5112850;28;20038;-76
2021/06/30 01:52:29;;;;;;;14.63;5.60;;;;;;;;;;5111337;28;20064;-76
2021/06/30 01:54:56;;;;;;;10.60;6.15;;;;;;;;;;5092013;28;20044;-76
2021/06/30 01:57:22;;;;;;;8.95;5.85;;;;;;;;;;5112398;28;20390;-76
2021/06/30 01:59:48;;;;;;;11.05;5.32;;;;;;;;;;5111989;28;20035;-76
2021/06/30 02:02:14;;;;;;;10.35;5.80;;;;;;;;;;5111090;27;20542;-76
2021/06/30 02:04:41;;;;;;;13.07;5.55;;;;;;;;;;5077695;28;20043;-75
2021/06/30 02:07:07;;;;;;;9.82;5.72;;;;;;;;;;5122301;27;20049;-76
2021/06/30 02:09:34;;;;;;;11.55;6.13;;;;;;;;;;5125087;27;20057;-75
2021/06/30 02:12:00;;;;;;;12.38;6.30;;;;;;;;;;5111627;28;20058;-76
2021/06/30 02:14:26;;;;;;;8.90;5.18;;;;;;;;;;5093018;28;20486;-75
2021/06/30 02:16:52;;;;;;;8.15;5.63;;;;;;;;;;5112143;28;20051;-76
2021/06/30 02:19:18;;;;;;;6.75;5.78;;;;;;;;;;5112454;28;20023;-76
2021/06/30 02:21:44;;;;;;;9.48;5.70;;;;;;;;;;5111236;28;20020;-75
2021/06/30 02:24:10;;;;;;;7.53;6.05;;;;;;;;;;5110900;28;20371;-76
2021/06/30 02:26:37;;;;;;;11.85;6.15;;;;;;;;;;5093877;28;20023;-75
2021/06/30 02:29:04;;;;;;;11.63;5.93;;;;;;;;;;5107978;28;20130;-76
2021/06/30 02:31:30;;;;;;;12.55;6.90;;;;;;;;;;5111022;28;20044;-76
2021/06/30 02:33:56;;;;;;;13.20;6.50;;;;;;;;;;5111909;27;20168;-76
2021/06/30 02:36:22;;;;;;;9.13;5.97;;;;;;;;;;5111303;28;20028;-77
2021/06/30 02:38:49;;;;;;;14.05;5.82;;;;;;;;;;5111253;28;20054;-76
2021/06/30 02:41:15;;;;;;;8.95;5.63;;;;;;;;;;5111981;28;20049;-76
2021/06/30 02:43:42;;;;;;;12.85;5.88;;;;;;;;;;5092830;28;20397;-76
2021/06/30 02:46:08;;;;;;;7.65;5.90;;;;;;;;;;5110009;28;20050;-76
2021/06/30 02:48:34;;;;;;;8.02;5.95;;;;;;;;;;5110948;28;20071;-77
2021/06/30 02:51:00;;;;;;;10.63;6.35;;;;;;;;;;5111416;28;20657;-77
2021/06/30 02:53:26;;;;;;;16.45;6.47;;;;;;;;;;5110799;28;20043;-75
2021/06/30 02:55:53;;;;;;;8.32;5.63;;;;;;;;;;5108456;28;20464;-76
2021/06/30 02:58:19;;;;;;;10.75;6.13;;;;;;;;;;5092041;28;20046;-77
2021/06/30 03:00:45;;;;;;;9.93;6.35;;;;;;;;;;5097890;28;20706;-75
2021/06/30 03:03:11;;;;;;;9.10;5.88;;;;;;;;;;5109693;28;20047;-75
2021/06/30 03:05:37;;;;;;;15.68;6.50;;;;;;;;;;5110032;28;20016;-77
2021/06/30 03:08:03;;;;;;;10.68;6.65;;;;;;;;;;5109754;28;20105;-77
2021/06/30 03:10:29;;;;;;;10.60;5.97;;;;;;;;;;5091088;28;20055;-77
2021/06/30 03:12:55;;;;;;;12.02;6.38;;;;;;;;;;5109092;28;20058;-75
2021/06/30 03:15:21;;;;;;;8.00;5.28;;;;;;;;;;5088554;28;20027;-76
2021/06/30 03:17:47;;;;;;;11.57;7.00;;;;;;;;;;5108897;28;20028;-76
2021/06/30 03:20:15;;;;;;;7.95;6.03;;;;;;;;;;5110018;28;20039;-76
2021/06/30 03:22:43;;;;;;;10.23;6.05;;;;;;;;;;5109201;28;20028;-75
2021/06/30 03:25:10;;;;;;;9.68;5.65;;;;;;;;;;5090072;28;20043;-77
2021/06/30 03:27:36;;;;;;;13.25;6.10;;;;;;;;;;5103218;28;20020;-76
2021/06/30 03:30:04;;;;;;;8.02;5.25;;;;;;;;;;5109879;28;20055;-77
2021/06/30 03:32:30;;;;;;;;;;;;;;;;;;5097529;28;20452;-76
2021/06/30 03:34:56;;;;;;;;;;;;;;;;;;5092176;28;19907;-77
2021/06/30 03:37:21;;;;;;;;;;;;;;;;;;5092269;28;19907;-79
2021/06/30 03:39:47;;;;;;;;;;;;;;;;;;5090990;28;20364;-77
2021/06/30 03:42:13;;;;;;;;;;;;;;;;;;5090181;28;19911;-77
2021/06/30 03:44:39;;;;;;;;;;;;;;;;;;5110173;28;19923;-77
2021/06/30 03:47:05;;;;;;;;;;;;;;;;;;5110302;28;19907;-77
2021/06/30 03:49:31;;;;;;;;;;;;;;;;;;5090665;28;19908;-77
2021/06/30 03:51:57;;;;;;;;;;;;;;;;;;5090258;28;19915;-77
2021/06/30 03:54:26;;;;;;;;;;;;;;;;;;5054995;28;1063934;-77
2021/06/30 03:56:52;;;;;;;;;;;;;;;;;;5110447;28;19982;-78
2021/06/30 03:59:17;;;;;;;;;;;;;;;;;;5110183;28;20575;-77
2021/06/30 04:01:43;;;;;;;;;;;;;;;;;;5111146;28;19907;-78
2021/06/30 04:04:12;;;;;;;;;;;;;;;;;;5110718;28;20372;-77
2021/06/30 04:06:38;;;;;;;;;;;;;;;;;;5111003;28;20334;-78
2021/06/30 04:09:04;;;;;;;;;;;;;;;;;;5109775;28;19924;-77
2021/06/30 04:11:30;;;;;;;;;;;;;;;;;;5109862;28;19907;-78
2021/06/30 04:13:56;;;;;;;;;;;;;;;;;;5110927;28;19907;-77
2021/06/30 04:16:22;;;;;;;;;;;;;;;;;;5111060;28;20334;-78
2021/06/30 04:18:48;;;;;;;;;;;;;;;;;;5102383;28;19915;-77
2021/06/30 04:21:13;;;;;;;;;;;;;;;;;;5109937;28;19908;-78
2021/06/30 04:23:39;;;;;;;;;;;;;;;;;;5110224;28;20333;-77
2021/06/30 04:26:05;;;;;;;;;;;;;;;;;;5110711;28;19923;-78
2021/06/30 04:28:31;;;;;;;;;;;;;;;;;;5110450;28;19907;-79
2021/06/30 04:30:57;;;;;;;;;;;;;;;;;;5110019;28;20018;-78
2021/06/30 04:33:23;;;;;;;;;;;;;;;;;;5091597;28;19908;-78
2021/06/30 04:35:49;;;;;;;;;;;;;;;;;;5110020;28;19926;-78
2021/06/30 04:38:15;;;;;;;;;;;;;;;;;;5110803;28;19908;-79
2021/06/30 04:40:40;;;;;;;;;;;;;;;;;;5110887;28;20303;-78
2021/06/30 04:43:06;;;;;;;;;;;;;;;;;;5090842;28;19918;-79
2021/06/30 04:45:32;;;;;;;;;;;;;;;;;;5092130;28;19911;-78
2021/06/30 04:47:58;;;;;;;;;;;;;;;;;;5091569;28;19911;-79
2021/06/30 04:50:24;;;;;;;;;;;;;;;;;;5109962;28;19915;-78
2021/06/30 04:52:50;;;;;;;;;;;;;;;;;;5108844;28;19908;-78
2021/06/30 04:55:16;;;;;;;;;;;;;;;;;;5110527;28;19915;-78
2021/06/30 04:57:42;;;;;;;;;;;;;;;;;;5113742;28;19953;-77
2021/06/30 05:00:08;;;;;;;;;;;;;;;;;;5113779;27;20250;-77
2021/06/30 05:02:33;;;;;;;;;;;;;;;;;;5094893;28;20104;-78
2021/06/30 05:04:59;;;;;;;;;;;;;;;;;;5108995;27;20030;-78
2021/06/30 05:07:25;;;;;;;;;;;;;;;;;;5093515;28;20448;-78
2021/06/30 05:09:51;;;;;;;;;;;;;;;;;;5103004;28;19908;-76
2021/06/30 05:12:17;;;;;;;;;;;;;;;;;;5091604;27;19914;-77
2021/06/30 05:14:43;;;;;;;;;;;;;;;;;;5114825;27;19914;-77
2021/06/30 05:17:09;;;;;;;;;;;;;;;;;;5094849;28;20352;-77
2021/06/30 05:19:35;;;;;;;;;;;;;;;;;;5111814;28;19914;-79
2021/06/30 05:22:01;;;;;;;;;;;;;;;;;;5113393;28;19908;-77
2021/06/30 05:24:27;;;;;;;;;;;;;;;;;;5094550;28;19976;-77
2021/06/30 05:26:52;;;;;;;;;;;;;;;;;;5086961;28;19961;-78
2021/06/30 05:29:18;;;;;;;;;;;;;;;;;;5110715;28;19908;-79
2021/06/30 05:31:44;;;;;;;;;;;;;;;;;;5112549;28;20006;-78
2021/06/30 05:34:10;;;;;;;;;;;;;;;;;;5113604;28;19914;-79
2021/06/30 05:36:36;;;;;;;;;;;;;;;;;;5113190;28;19939;-78
2021/06/30 05:39:02;;;;;;;;;;;;;;;;;;5113479;28;19951;-78
2021/06/30 05:41:28;;;;;;;;;;;;;;;;;;5112910;28;19908;-78
2021/06/30 05:43:54;;;;;;;;;;;;;;;;;;5112705;28;19935;-78
2021/06/30 05:46:19;;;;;;;;;;;;;;;;;;5112303;28;20003;-77
2021/06/30 05:48:45;;;;;;;;;;;;;;;;;;5112270;28;20271;-78
2021/06/30 05:51:11;;;;;;;;;;;;;;;;;;5100730;28;19915;-78
2021/06/30 05:53:37;;;;;;;;;;;;;;;;;;5092286;28;19949;-78
2021/06/30 05:56:03;;;;;;;;;;;;;;;;;;5090407;28;20373;-78
2021/06/30 05:58:29;;;;;;;;;;;;;;;;;;5110730;28;19927;-77
2021/06/30 06:00:55;;;;;;;;;;;;;;;;;;5101083;28;20273;-79
2021/06/30 06:03:21;;;;;;;;;;;;;;;;;;5111153;28;19916;-78
2021/06/30 06:05:47;;;;;;;;;;;;;;;;;;5111894;28;19907;-78
2021/06/30 06:08:12;;;;;;;;;;;;;;;;;;5111185;28;19953;-76
2021/06/30 06:10:38;;;;;;;;;;;;;;;;;;5112076;28;19915;-77
2021/06/30 06:13:04;;;;;;;;;;;;;;;;;;5121297;27;19915;-77
2021/06/30 06:15:30;;;;;;;;;;;;;;;;;;5115725;27;20007;-78
2021/06/30 06:17:56;;;;;;;;;;;;;;;;;;5093097;28;19965;-78
2021/06/30 06:20:22;;;;;;;;;;;;;;;;;;5093700;28;20004;-77
2021/06/30 06:22:48;;;;;;;;;;;;;;;;;;5090208;28;19988;-79
2021/06/30 06:25:14;;;;;;;;;;;;;;;;;;5112488;28;19910;-75
2021/06/30 06:27:40;;;;;;;;;;;;;;;;;;5112183;28;20311;-77
2021/06/30 06:30:06;;;;;;;;;;;;;;;;;;5111326;28;19908;-77
2021/06/30 06:32:32;;;;;;;;;;;;;;;;;;5112716;27;19908;-78
2021/06/30 06:34:58;;;;;;;;;;;;;;;;;;5112494;28;19904;-78
2021/06/30 06:37:23;;;;;;;;;;;;;;;;;;5112215;28;19908;-78
2021/06/30 06:39:49;;;;;;;;;;;;;;;;;;5111802;28;20311;-78
2021/06/30 06:42:15;;;;;;;;;;;;;;;;;;5111454;27;19914;-77
2021/06/30 06:44:41;;;;;;;;;;;;;;;;;;5112301;28;19962;-78
2021/06/30 06:47:07;;;;;;;;;;;;;;;;;;5111728;28;19907;-78
2021/06/30 06:49:33;;;;;;;;;;;;;;;;;;5111373;28;19922;-78
2021/06/30 06:52:01;;;;;;;;;;;;;;;;;;5111249;27;19908;-76
2021/06/30 06:54:26;;;;;;;;;;;;;;;;;;5110803;27;19919;-76
2021/06/30 06:56:52;;;;;;;;;;;;;;;;;;5111905;28;20289;-76
2021/06/30 06:59:18;;;;;;;;;;;;;;;;;;5111703;28;19903;-77
2021/06/30 07:01:44;;;;;;;;;;;;;;;;;;5109990;27;20532;-76
2021/06/30 07:04:10;;;;;;;;;;;;;;;;;;5110762;27;19916;-79
2021/06/30 07:06:36;;;;;;;;;;;;;;;;;;5093009;28;20211;-81
2021/06/30 07:09:02;;;;;;;;;;;;;;;;;;5111457;27;19911;-81
2021/06/30 07:11:27;;;;;;;;;;;;;;;;;;5109657;28;20405;-77
2021/06/30 07:13:53;;;;;;;;;;;;;;;;;;5111047;28;19903;-77
2021/06/30 07:16:19;;;;;;;;;;;;;;;;;;5128197;27;20315;-79
2021/06/30 07:18:45;;;;;;;;;;;;;;;;;;5118337;27;19907;-78
2021/06/30 07:21:11;;;;;;;;;;;;;;;;;;5112032;28;20373;-80
2021/06/30 07:23:37;;;;;;;;;;;;;;;;;;5110968;27;19915;-81
2021/06/30 07:26:03;;;;;;;;;;;;;;;;;;5112470;28;19904;-80
2021/06/30 07:28:29;;;;;;;;;;;;;;;;;;5111401;28;20268;-77
2021/06/30 07:30:55;;;;;;;;;;;;;;;;;;5111587;28;19914;-77
2021/06/30 07:33:21;;;;;;;;;;;;;;;;;;5110841;28;19907;-79
2021/06/30 07:35:46;;;;;;;;;;;;;;;;;;5112077;28;19903;-80
2021/06/30 07:38:12;;;;;;;;;;;;;;;;;;5110730;28;20289;-80
2021/06/30 07:40:38;;;;;;;;;;;;;;;;;;5111605;28;19926;-80
2021/06/30 07:43:04;;;;;;;;;;;;;;;;;;5091598;28;19923;-79
2021/06/30 07:45:30;;;;;;;;;;;;;;;;;;5111379;28;19907;-78
2021/06/30 07:47:56;;;;;;;;;;;;;;;;;;5093558;28;19910;-80
2021/06/30 07:50:22;;;;;;;;;;;;;;;;;;5112259;28;19903;-80
2021/06/30 07:52:52;;;;;;;;;;;;;;;;;;5111937;28;20320;-78
2021/06/30 07:55:18;;;;;;;;;;;;;;;;;;5110423;28;19920;-79
2021/06/30 07:57:44;;;;;;;;;;;;;;;;;;5110681;28;19926;-79
2021/06/30 08:00:10;;;;;;;;;;;;;;;;;;5111188;28;19907;-77
2021/06/30 08:02:36;;;;;;;;;;;;;;;;;;5110578;28;19910;-78
2021/06/30 08:05:02;;;;;;;;;;;;;;;;;;5109881;28;19919;-78
2021/06/30 08:07:28;;;;;;;;;;;;;;;;;;5115213;28;20464;-77
2021/06/30 08:09:54;;;;;;;;;;;;;;;;;;5103507;28;19998;-77
2021/06/30 08:12:20;;;;;;;;;;;;;;;;;;5109720;28;19957;-78
2021/06/30 08:14:46;;;;;;;;;;;;;;;;;;5110904;28;19954;-77
2021/06/30 08:17:12;;;;;;;;;;;;;;;;;;5109644;28;19964;-80
2021/06/30 08:19:38;;;;;;;;;;;;;;;;;;5109800;28;19907;-79
2021/06/30 08:22:04;;;;;;;;;;;;;;;;;;5110243;28;19948;-79
2021/06/30 08:24:29;;;;;;;;;;;;;;;;;;5110756;28;20071;-79
2021/06/30 08:26:56;;;;;;;;;;;;;;;;;;5109413;28;20315;-78
2021/06/30 08:29:24;;;;;;;;;;;;;;;;;;5113068;28;19908;-78
2021/06/30 08:31:50;;;;;;;;;;;;;;;;;;5113932;27;19907;-77
2021/06/30 08:34:16;;;;;;;;;;;;;;;;;;5114534;27;19953;-75
2021/06/30 08:36:42;;;;;;;;;;;;;;;;;;5113900;28;20289;-77
2021/06/30 08:39:09;;;;;;;;;;;;;;;;;;5115626;27;19918;-78
2021/06/30 08:41:35;;;;;;;;;;;;;;;;;;5108572;28;19908;-78
2021/06/30 08:44:01;;;;;;;;;;;;;;;;;;5112802;28;20026;-76
2021/06/30 08:46:27;;;;;;;;;;;;;;;;;;5112965;27;19915;-78
2021/06/30 08:48:53;;;;;;;;;;;;;;;;;;5113518;28;19903;-78
2021/06/30 08:51:19;;;;;;;;;;;;;;;;;;5108010;28;19961;-79
2021/06/30 08:53:45;;;;;;;;;;;;;;;;;;5110388;27;19914;-79
2021/06/30 08:56:11;;;;;;;;;;;;;;;;;;5105981;28;19916;-77
2021/06/30 08:58:36;;;;;;;;;;;;;;;;;;5113235;27;20415;-75
2021/06/30 09:01:02;;;;;;;;;;;;;;;;;;5103862;28;19912;-74
2021/06/30 09:03:28;;;;;;;;;;;;;;;;;;5113189;28;20418;-76
2021/06/30 09:08:20;;;;;;;;;;;;;;;;;;5114361;28;20334;-75
2021/06/30 09:10:46;;;;;;;;;;;;;;;;;;5113860;28;19907;-76
2021/06/30 09:13:12;;;;;;;;;;;;;;;;;;5114099;28;19911;-77
2021/06/30 09:15:38;;;;;;;;;;;;;;;;;;5114589;28;20357;-76
2021/06/30 09:18:03;;;;;;;;;;;;;;;;;;5114148;28;19946;-77
2021/06/30 09:20:29;;;;;;;;;;;;;;;;;;5113148;28;19912;-74
2021/06/30 09:22:57;;;;;;;;;;;;;;;;;;5122473;27;20265;-75
2021/06/30 09:25:23;;;;;;;;;;;;;;;;;;5114379;28;20353;-73
2021/06/30 09:27:49;;;;;;;;;;;;;;;;;;5103613;28;19914;-75
2021/06/30 09:30:15;;;;;;;;;;;;;;;;;;5111435;28;19950;-70
2021/06/30 09:32:41;;;;;;;;;;;;;;;;;;5096458;28;19937;-73
2021/06/30 09:35:07;;;;;;;;;;;;;;;;;;5100973;28;19907;-73
2021/06/30 09:37:32;;;;;;;;;;;;;;;;;;5112794;28;20360;-72
2021/06/30 09:39:58;;;;;;;;;;;;;;;;;;5113047;28;19915;-76
2021/06/30 09:42:24;;;;;;;;;;;;;;;;;;5111268;28;19907;-71
2021/06/30 09:44:50;;;;;;;;;;;;;;;;;;5113185;28;19912;-72
2021/06/30 09:47:18;;;;;;;;;;;;;;;;;;5116463;27;20014;-74
2021/06/30 09:49:44;;;;;;;;;;;;;;;;;;5109943;28;19908;-75
2021/06/30 09:52:09;;;;;;;;;;;;;;;;;;5110675;28;19926;-74
2021/06/30 09:54:35;;;;;;;;;;;;;;;;;;5119606;27;19919;-74
2021/06/30 09:57:03;;;;;;;;;;;;;;;;;;5133957;27;19911;-75
2021/06/30 09:59:30;;;;;;;;;;;;;;;;;;5133856;27;19903;-76
2021/06/30 10:01:56;;;;;;;;;;;;;;;;;;5132335;27;19913;-74
2021/06/30 10:04:23;;;;;;;;;;;;;;;;;;5133140;27;19911;-75
2021/06/30 10:06:48;;;;;;;;;;;;;;;;;;5133263;27;19903;-73
2021/06/30 10:09:14;;;;;;;;;;;;;;;;;;5133604;27;20057;-76
2021/06/30 10:11:40;;;;;;;;;;;;;;;;;;5132832;27;19911;-76
2021/06/30 10:14:06;;;;;;;;;;;;;;;;;;5132323;27;20357;-75
2021/06/30 10:16:32;;;;;;;;;;;;;;;;;;5128640;27;19907;-75
2021/06/30 10:18:58;;;;;;;;;;;;;;;;;;5133077;27;19904;-75
2021/06/30 10:21:24;;;;;;;;;;;;;;;;;;5133017;27;19994;-74
2021/06/30 10:23:50;;;;;;;;;;;;;;;;;;5131643;27;19963;-76
2021/06/30 10:26:16;;;;;;;;;;;;;;;;;;5133036;27;20291;-72
2021/06/30 10:28:42;;;;;;;;;;;;;;;;;;5133099;27;19911;-74
2021/06/30 10:31:07;;;;;;;;;;;;;;;;;;5132845;27;19903;-73
2021/06/30 10:33:34;;;;;;;;;;;;;;;;;;5131797;27;19951;-73
2021/06/30 10:36:00;;;;;;;;;;;;;;;;;;5119861;27;19914;-74
2021/06/30 10:38:26;;;;;;;;;;;;;;;;;;5111143;28;19907;-73
2021/06/30 10:40:52;;;;;;;;;;;;;;;;;;5112054;28;19935;-74
2021/06/30 10:43:18;;;;;;;;;;;;;;;;;;5111028;28;20080;-73
2021/06/30 10:45:43;;;;;;;;;;;;;;;;;;5111751;28;20305;-72
2021/06/30 10:48:11;;;;;;;;;;;;;;;;;;5095041;28;20004;-71
2021/06/30 10:50:41;;;;;;;;;;;;;;;;;;5111081;28;19915;-71
2021/06/30 10:53:08;;;;;;;;;;;;;;;;;;5110860;28;19930;-72
2021/06/30 10:55:40;;;;;;;;;;;;;;;;;;5109999;28;20058;-73
2021/06/30 10:58:06;;;;;;;;;;;;;;;;;;5111256;28;19911;-72
2021/06/30 11:00:32;;;;;;;;;;;;;;;;;;5111898;28;19915;-71
2021/06/30 11:02:58;;;;;;;;;;;;;;;;;;5110114;28;19916;-71
2021/06/30 11:05:24;;;;;;;;;;;;;;;;;;5108541;28;20081;-71
2021/06/30 11:07:50;;;;;;;;;;;;;;;;;;5110597;28;19994;-72
2021/06/30 11:10:16;;;;;;;;;;;;;;;;;;5111983;28;19910;-71
2021/06/30 11:12:42;;;;;;;;;;;;;;;;;;5109712;28;19912;-71
2021/06/30 11:15:08;;;;;;;;;;;;;;;;;;5110160;28;19915;-70
2021/06/30 11:17:36;;;;;;;;;;;;;;;;;;5119508;27;20285;-71
2021/06/30 11:20:02;;;;;;;;;;;;;;;;;;5111630;28;19915;-72
2021/06/30 11:22:28;;;;;;;;;;;;;;;;;;5105742;28;19908;-69
2021/06/30 11:24:54;;;;;;;;;;;;;;;;;;5110824;28;19911;-72
2021/06/30 11:27:24;;;;;;;;;;;;;;;;;;5106756;28;19908;-71
2021/06/30 11:29:54;;;;;;;;;;;;;;;;;;5111473;28;19994;-71
2021/06/30 11:32:20;;;;;;;;;;;;;;;;;;5114834;27;20361;-71
2021/06/30 11:34:46;;;;;;;;;;;;;;;;;;5111286;28;19919;-81
2021/06/30 11:37:12;;;;;;;;;;;;;;;;;;5093381;28;20007;-81
2021/06/30 11:39:38;;;;;;;;;;;;;;;;;;5107170;28;19943;-79
2021/06/30 11:42:07;;;;;;;;;;;;;;;;;;5075060;28;19908;-79
2021/06/30 11:44:33;;;;;;;;;;;;;;;;;;5093610;28;19911;-80
2021/06/30 11:46:59;;;;;;;;;;;;;;;;;;5103330;28;19998;-82
2021/06/30 11:49:25;;;;;;;;;;;;;;;;;;5072969;28;19904;-78
2021/06/30 11:51:51;;;;;;;;;;;;;;;;;;5091598;28;19916;-85
2021/06/30 11:54:17;;;;;;;;;;;;;;;;;;5073415;28;20057;-80
2021/06/30 11:56:43;;;;;;;;;;;;;;;;;;5112328;28;19930;-80
2021/06/30 11:59:10;;;;;;;;;;;;;;;;;;5092664;28;20243;-80
2021/06/30 12:01:37;;;;;;;;;;;;;;;;;;5110774;28;19908;-80
2021/06/30 12:04:03;;;;;;;;;;;;;;;;;;5101559;28;20006;-81
2021/06/30 12:06:29;;;;;;;;;;;;;;;;;;5095287;28;19998;-82
2021/06/30 12:08:55;;;;;;;;;;;;;;;;;;5100702;28;19914;-83
2021/06/30 12:11:21;;;;;;;;;;;;;;;;;;5102001;28;20269;-81
2021/06/30 12:13:47;;;;;;;;;;;;;;;;;;5105591;28;19919;-83
2021/06/30 12:16:12;;;;;;;;;;;;;;;;;;5097002;28;19908;-85
2021/06/30 12:18:38;;;;;;;;;;;;;;;;;;5113065;28;19977;-85
2021/06/30 12:21:04;;;;;;;;;;;;;;;;;;5112094;28;19906;-83
2021/06/30 12:23:30;;;;;;;;;;;;;;;;;;5112402;28;20273;-82
2021/06/30 12:25:56;;;;;;;;;;;;;;;;;;5113389;28;19908;-82
2021/06/30 12:28:22;;;;;;;;;;;;;;;;;;5112237;28;20341;-80
2021/06/30 12:30:48;;;;;;;;;;;;;;;;;;5112686;27;19956;-80
2021/06/30 12:33:14;;;;;;;;;;;;;;;;;;5113368;28;20016;-80
2021/06/30 12:35:39;;;;;;;;;;;;;;;;;;5114342;28;20034;-84
2021/06/30 12:38:06;;;;;;;;;;;;;;;;;;5114768;27;19904;-83
2021/06/30 12:40:32;;;;;;;;;;;;;;;;;;5096256;28;20352;-85
2021/06/30 12:43:00;;;;;;;;;;;;;;;;;;5095092;28;19949;-86
2021/06/30 12:45:26;;;;;;;;;;;;;;;;;;5095829;28;19957;-84
2021/06/30 12:47:52;;;;;;;;;;;;;;;;;;5114939;28;19911;-85
2021/06/30 12:50:18;;;;;;;;;;;;;;;;;;5113969;28;20207;-85
2021/06/30 12:52:44;;;;;;;;;;;;;;;;;;5113539;28;19938;-84
2021/06/30 12:55:13;;;;;;;;;;;;;;;;;;5095898;28;19994;-84
2021/06/30 12:57:39;;;;;;;;;;;;;;;;;;5096044;28;20233;-84
2021/06/30 13:00:05;;;;;;;;;;;;;;;;;;5121537;27;20026;-89
2021/06/30 13:02:31;;;;;;;;;;;;;;;;;;5116789;27;19903;-89
2021/06/30 13:04:57;;;;;;;;;;;;;;;;;;5116044;27;19950;-89
2021/06/30 13:07:22;;;;;;;;;;;;;;;;;;5111484;28;20305;-89
2021/06/30 13:09:48;;;;;;;;;;;;;;;;;;5096099;28;19911;-87
2021/06/30 13:12:14;;;;;;;;;;;;;;;;;;5113757;28;20037;-85
2021/06/30 13:14:41;;;;;;;;;;;;;;;;;;5113478;28;19904;-90
2021/06/30 13:17:07;;;;;;;;;;;;;;;;;;5096559;28;20266;-89
2021/06/30 13:19:32;;;;;;;;;;;;;;;;;;5095643;28;20339;-83
2021/06/30 13:21:59;;;;;;;;;;;;;;;;;;5113396;28;20033;-83
2021/06/30 13:24:32;;;;;;;;;;;;;;;;;;5113829;28;19912;-81
2021/06/30 13:35:12;;;;;;;;;;;;;;;;;;5133803;27;20385;-83
2021/06/30 13:37:37;;;;;;;;;;;;;;;;;;5119197;27;19903;-81
2021/06/30 13:40:03;;;;;;;;;;;;;;;;;;5113383;28;19958;-81
2021/06/30 13:42:29;;;;;;;;;;;;;;;;;;5112841;28;19904;-81
2021/06/30 13:44:55;;;;;;;;;;;;;;;;;;5113310;28;20384;-80
2021/06/30 13:47:21;;;;;;;;;;;;;;;;;;5093878;28;19904;-82
2021/06/30 13:49:47;;;;;;;;;;;;;;;;;;5112271;28;19908;-82
2021/06/30 13:52:13;;;;;;;;;;;;;;;;;;5107717;28;20338;-83
2021/06/30 13:54:39;;;;;;;;;;;;;;;;;;5109666;28;19923;-78
2021/06/30 13:57:05;;;;;;;;;;;;;;;;;;5106822;27;19912;-77
2021/06/30 13:59:31;;;;;;;;;;;;;;;;;;5088405;28;19912;-76
2021/06/30 14:01:58;;;;;;;;;;;;;;;;;;5095221;27;19915;-77
2021/06/30 14:04:24;;;;;;;;;;;;;;;;;;5076891;28;19922;-75
2021/06/30 14:06:50;;;;;;;;;;;;;;;;;;5076803;27;19908;-75
2021/06/30 14:09:15;;;;;;;;;;;;;;;;;;5095369;28;19983;-78
2021/06/30 14:11:41;;;;;;;;;;;;;;;;;;5077769;27;19908;-78
2021/06/30 14:14:07;;;;;;;;;;;;;;;;;;5098156;27;21523;-77
2021/06/30 14:16:33;;;;;;;;;;;;;;;;;;5104048;27;19917;-78
2021/06/30 14:18:59;;;;;;;;;;;;;;;;;;5102506;27;19912;-75
2021/06/30 14:21:26;;;;;;;;;;;;;;;;;;5086190;28;20705;-76
2021/06/30 14:23:52;;;;;;;;;;;;;;;;;;5106234;27;19916;-74
2021/06/30 14:26:18;;;;;;;;;;;;;;;;;;5085445;28;19911;-76
2021/06/30 14:28:43;;;;;;;;;;;;;;;;;;5100941;27;19912;-75
2021/06/30 14:31:10;;;;;;;;;;;;;;;;;;5104847;28;19950;-78
2021/06/30 14:33:36;;;;;;;;;;;;;;;;;;5101245;27;19908;-78
2021/06/30 14:36:02;;;;;;;;;;;;;;;;;;5090529;28;20344;-79
2021/06/30 14:38:28;;;;;;;;;;;;;;;;;;5100900;27;20003;-78
2021/06/30 14:40:55;;;;;;;;;;;;;;;;;;5104619;27;20010;-78
2021/06/30 14:43:21;;;;;;;;;;;;;;;;;;5100555;27;19915;-78
2021/06/30 14:45:47;;;;;;;;;;;;;;;;;;5097643;27;19930;-76
2021/06/30 14:48:15;;;;;;;;;;;;;;;;;;5101568;28;19965;-78
2021/06/30 14:50:41;;;;;;;;;;;;;;;;;;5091618;28;19908;-75
2021/06/30 14:53:08;;;;;;;;;;;;;;;;;;5108525;28;20002;-77
2021/06/30 14:55:34;;;;;;;;;;;;;;;;;;5105767;27;21559;-77
2021/06/30 14:58:00;;;;;;;;;;;;;;;;;;5095600;27;20006;-77
2021/06/30 15:00:26;;;;;;;;;;;;;;;;;;5097492;27;19914;-77
2021/06/30 15:02:52;;;;;;;;;;;;;;;;;;5094993;27;19964;-77
2021/06/30 15:05:18;;;;;;;;;;;;;;;;;;5096490;27;19915;-77
2021/06/30 15:07:44;;;;;;;;;;;;;;;;;;5097117;28;19925;-77
2021/06/30 15:10:10;;;;;;;;;;;;;;;;;;5106647;28;19912;-76
2021/06/30 15:12:36;;;;;;;;;;;;;;;;;;5108370;28;19907;-77
2021/06/30 15:15:02;;;;;;;;;;;;;;;;;;5110839;28;20391;-76
2021/06/30 15:17:28;;;;;;;;;;;;;;;;;;5109627;28;19904;-76
2021/06/30 15:19:54;;;;;;;;;;;;;;;;;;5110843;28;19910;-79
2021/06/30 15:22:20;;;;;;;;;;;;;;;;;;5109447;28;19904;-75
2021/06/30 15:24:48;;;;;;;;;;;;;;;;;;5110357;28;19927;-79
2021/06/30 15:27:14;;;;;;;;;;;;;;;;;;5110030;28;20319;-80
2021/06/30 15:29:42;;;;;;;;;;;;;;;;;;5110248;28;19903;-76
2021/06/30 15:32:07;;;;;;;;;;;;;;;;;;5106728;28;19908;-79
2021/06/30 15:34:33;;;;;;;;;;;;;;;;;;5109988;28;20308;-79
2021/06/30 15:36:59;;;;;;;;;;;;;;;;;;5082871;28;19911;-78
2021/06/30 15:39:28;;;;;;;;;;;;;;;;;;5103098;27;19907;-80
2021/06/30 15:41:54;;;;;;;;;;;;;;;;;;5110766;28;19907;-81
2021/06/30 15:44:20;;;;;;;;;;;;;;;;;;5110564;28;19922;-82
2021/06/30 15:46:45;;;;;;;;;;;;;;;;;;5111467;28;19915;-80
2021/06/30 15:49:11;;;;;;;;;;;;;;;;;;5112529;28;19903;-82
2021/06/30 15:51:37;;;;;;;;;;;;;;;;;;5111051;28;19903;-81
2021/06/30 15:54:03;;;;;;;;;;;;;;;;;;5110037;28;19941;-82
2021/06/30 15:56:39;;;;;;;;;;;;;;;;;;5111273;28;19910;-83
2021/06/30 15:59:05;;;;;;;;;;;;;;;;;;5111388;28;20725;-84
2021/06/30 16:01:30;;;;;;;;;;;;;;;;;;5111157;28;20002;-85
2021/06/30 16:03:56;;;;;;;;;;;;;;;;;;5129211;28;19966;-84
2021/06/30 16:06:22;;;;;;;;;;;;;;;;;;5130960;28;20307;-84
2021/06/30 16:08:48;;;;;;;;;;;;;;;;;;5119416;28;19908;-84
2021/06/30 16:11:14;;;;;;;;;;;;;;;;;;5112038;28;19910;-77
2021/06/30 16:13:41;;;;;;;;;;;;;;;;;;5111025;28;19904;-78
2021/06/30 16:16:07;;;;;;;;;;;;;;;;;;5092094;28;19907;-78
2021/06/30 16:18:33;;;;;;;;;;;;;;;;;;5111126;28;20402;-78